createdAt,value
2018-09-18T00:00:16.499Z,10.63
2018-09-18T00:02:46.464Z,9.67
2018-09-18T00:05:15.679Z,9.43
2018-09-18T00:07:44.893Z,8.53
2018-09-18T00:10:14.217Z,7.73
2018-09-18T00:12:43.455Z,8.23
2018-09-18T00:15:12.706Z,7.87
2018-09-18T00:17:41.953Z,11.00
2018-09-18T00:20:11.188Z,10.13
2018-09-18T00:22:40.504Z,8.83
2018-09-18T00:25:09.751Z,11.50
2018-09-18T00:27:39.055Z,12.77
2018-09-18T00:30:08.283Z,9.53
2018-09-18T00:32:37.591Z,11.07
2018-09-18T00:35:06.884Z,7.67
2018-09-18T00:37:36.156Z,11.70
2018-09-18T00:40:05.484Z,8.77
2018-09-18T00:42:34.687Z,10.10
2018-09-18T00:45:04.080Z,10.10
2018-09-18T00:47:33.352Z,10.67
2018-09-18T00:50:02.617Z,8.17
2018-09-18T00:52:31.851Z,8.73
2018-09-18T00:55:01.151Z,9.97
2018-09-18T00:57:30.474Z,8.50
2018-09-18T00:59:59.712Z,10.17
2018-09-18T01:02:28.951Z,12.10
2018-09-18T01:04:58.214Z,8.30
2018-09-18T01:07:27.656Z,10.90
2018-09-18T01:09:57.296Z,8.13
2018-09-18T01:12:26.512Z,9.60
2018-09-18T01:14:55.863Z,10.63
2018-09-18T01:17:25.295Z,10.27
2018-09-18T01:19:54.515Z,10.77
2018-09-18T01:22:23.741Z,11.53
2018-09-18T01:24:53.036Z,11.90
2018-09-18T01:27:22.396Z,8.97
2018-09-18T01:29:51.617Z,10.03
2018-09-18T01:32:20.835Z,9.87
2018-09-18T01:34:50.064Z,9.30
2018-09-18T01:37:19.363Z,9.83
2018-09-18T01:39:48.867Z,9.37
2018-09-18T01:42:18.096Z,11.10
2018-09-18T01:44:47.292Z,9.80
2018-09-18T01:47:16.548Z,9.27
2018-09-18T01:49:45.760Z,10.93
2018-09-18T01:52:14.994Z,10.43
2018-09-18T01:54:44.187Z,11.60
2018-09-18T01:57:13.593Z,10.87
2018-09-18T01:59:42.863Z,12.83
2018-09-18T02:02:12.092Z,10.87
2018-09-18T02:04:41.311Z,12.10
2018-09-18T02:07:10.792Z,10.67
2018-09-18T02:09:40.087Z,13.23
2018-09-18T02:12:09.323Z,13.23
2018-09-18T02:14:38.584Z,10.60
2018-09-18T02:17:07.893Z,13.63
2018-09-18T02:19:37.161Z,11.93
2018-09-18T02:22:06.424Z,12.30
2018-09-18T02:24:35.717Z,11.73
2018-09-18T02:27:04.993Z,11.43
2018-09-18T02:29:34.260Z,12.67
2018-09-18T02:32:03.557Z,12.37
2018-09-18T02:34:32.815Z,12.77
2018-09-18T02:37:02.060Z,12.40
2018-09-18T02:39:31.286Z,12.33
2018-09-18T02:42:00.551Z,14.50
2018-09-18T02:44:30.061Z,12.13
2018-09-18T02:46:59.516Z,15.53
2018-09-18T02:49:28.765Z,12.83
2018-09-18T02:51:57.990Z,13.77
2018-09-18T02:54:27.215Z,15.43
2018-09-18T02:56:56.461Z,13.37
2018-09-18T02:59:25.696Z,14.40
2018-09-18T03:01:54.911Z,13.33
2018-09-18T03:04:24.179Z,14.30
2018-09-18T03:06:53.511Z,15.90
2018-09-18T03:09:22.760Z,14.10
2018-09-18T03:11:51.989Z,14.47
2018-09-18T03:14:21.281Z,13.67
2018-09-18T03:16:50.509Z,13.87
2018-09-18T03:19:19.779Z,15.20
2018-09-18T03:21:49.007Z,14.00
2018-09-18T03:24:18.241Z,15.10
2018-09-18T03:26:47.588Z,15.07
2018-09-18T03:29:16.807Z,16.07
2018-09-18T03:31:46.053Z,14.27
2018-09-18T03:34:15.361Z,12.00
2018-09-18T03:36:46.622Z,13.53
2018-09-18T03:39:15.829Z,12.97
2018-09-18T03:41:45.024Z,12.30
2018-09-18T03:44:14.228Z,13.13
2018-09-18T03:46:43.524Z,12.37
2018-09-18T03:49:12.760Z,11.80
2018-09-18T03:51:41.989Z,17.63
2018-09-18T03:54:11.214Z,15.43
2018-09-18T03:56:40.548Z,15.17
2018-09-18T03:59:09.860Z,17.07
2018-09-18T04:01:39.156Z,18.70
2018-09-18T04:04:08.460Z,14.23
2018-09-18T04:06:37.996Z,14.77
2018-09-18T04:09:10.121Z,18.27
2018-09-18T04:11:39.638Z,19.23
2018-09-18T04:14:08.927Z,18.67
2018-09-18T04:16:38.305Z,14.77
2018-09-18T04:19:07.573Z,19.07
2018-09-18T04:21:41.359Z,21.80
2018-09-18T04:24:10.714Z,23.03
2018-09-18T04:26:40.971Z,24.90
2018-09-18T04:29:10.858Z,14.47
2018-09-18T04:31:41.298Z,23.67
2018-09-18T04:34:10.557Z,19.90
2018-09-18T04:36:39.908Z,16.90
2018-09-18T04:39:11.581Z,21.57
2018-09-18T04:41:41.085Z,14.83
2018-09-18T04:44:11.064Z,15.60
2018-09-18T04:46:40.560Z,19.23
2018-09-18T04:49:09.848Z,17.50
2018-09-18T04:51:39.180Z,19.03
2018-09-18T04:54:08.480Z,18.80
2018-09-18T04:56:37.801Z,15.67
2018-09-18T04:59:07.180Z,15.53
2018-09-18T05:01:37.489Z,16.53
2018-09-18T05:04:06.797Z,16.57
2018-09-18T05:06:38.230Z,16.67
2018-09-18T05:09:09.978Z,15.23
2018-09-18T05:11:39.341Z,21.07
2018-09-18T05:14:08.684Z,17.33
2018-09-18T05:16:37.994Z,14.07
2018-09-18T05:19:07.374Z,14.30
2018-09-18T05:21:36.700Z,16.00
2018-09-18T05:24:06.031Z,12.13
2018-09-18T05:26:35.323Z,14.83
2018-09-18T05:29:04.671Z,13.30
2018-09-18T05:31:33.904Z,14.30
2018-09-18T05:34:03.223Z,16.50
2018-09-18T05:36:32.536Z,15.17
2018-09-18T05:39:01.836Z,18.50
2018-09-18T05:41:31.173Z,16.53
2018-09-18T05:44:00.504Z,15.13
2018-09-18T05:46:29.936Z,13.60
2018-09-18T05:48:59.540Z,15.13
2018-09-18T05:51:28.824Z,15.63
2018-09-18T05:53:58.064Z,12.70
2018-09-18T05:56:27.635Z,17.30
2018-09-18T05:58:57.038Z,14.50
2018-09-18T06:01:26.464Z,13.13
2018-09-18T06:03:55.840Z,13.33
2018-09-18T06:06:25.245Z,15.33
2018-09-18T06:08:54.566Z,14.70
2018-09-18T06:11:24.070Z,16.87
2018-09-18T06:13:53.571Z,13.03
2018-09-18T06:16:23.081Z,14.13
2018-09-18T06:18:52.652Z,14.33
2018-09-18T06:21:22.069Z,12.27
2018-09-18T06:23:51.326Z,11.27
2018-09-18T06:26:20.720Z,12.90
2018-09-18T06:28:49.989Z,13.87
2018-09-18T06:31:19.285Z,14.07
2018-09-18T06:33:48.591Z,15.87
2018-09-18T06:36:18.037Z,16.27
2018-09-18T06:38:47.395Z,11.43
2018-09-18T06:41:16.680Z,12.93
2018-09-18T06:43:46.147Z,12.73
2018-09-18T06:46:15.472Z,10.90
2018-09-18T06:48:44.780Z,12.40
2018-09-18T06:51:14.018Z,12.37
2018-09-18T06:53:43.522Z,11.43
2018-09-18T06:56:12.948Z,10.43
2018-09-18T06:58:42.279Z,9.63
2018-09-18T07:01:11.618Z,12.67
2018-09-18T07:03:41.307Z,11.53
2018-09-18T07:06:10.668Z,13.53
2018-09-18T07:08:39.940Z,12.40
2018-09-18T07:11:09.291Z,13.90
2018-09-18T07:13:38.799Z,17.87
2018-09-18T07:16:09.161Z,16.67
2018-09-18T07:18:38.475Z,15.17
2018-09-18T07:21:08.000Z,17.40
2018-09-18T07:23:37.331Z,19.83
2018-09-18T07:26:06.704Z,16.43
2018-09-18T07:28:35.990Z,17.70
2018-09-18T07:31:05.330Z,22.60
2018-09-18T07:33:34.628Z,16.20
2018-09-18T07:36:04.611Z,19.40
2018-09-18T07:38:33.875Z,18.73
2018-09-18T07:41:03.264Z,15.40
2018-09-18T07:43:32.519Z,23.50
2018-09-18T07:46:01.882Z,17.17
2018-09-18T07:48:38.144Z,20.53
2018-09-18T07:51:09.492Z,20.63
2018-09-18T07:53:39.112Z,16.23
2018-09-18T07:56:08.619Z,17.83
2018-09-18T07:58:37.955Z,15.80
2018-09-18T08:01:07.247Z,16.43
2018-09-18T08:03:36.513Z,14.63
2018-09-18T08:06:06.400Z,12.77
2018-09-18T08:08:35.719Z,14.67
2018-09-18T08:11:05.041Z,13.87
2018-09-18T08:13:34.480Z,13.77
2018-09-18T08:16:03.865Z,14.90
2018-09-18T08:18:33.128Z,16.30
2018-09-18T08:21:02.486Z,18.30
2018-09-18T08:23:31.994Z,17.57
2018-09-18T08:26:01.373Z,22.33
2018-09-18T08:28:30.855Z,21.93
2018-09-18T08:31:00.156Z,29.57
2018-09-18T08:33:29.518Z,17.13
2018-09-18T08:35:58.809Z,14.73
2018-09-18T08:38:28.289Z,13.70
2018-09-18T08:40:57.599Z,14.20
2018-09-18T08:43:26.906Z,22.80
2018-09-18T08:45:56.397Z,17.33
2018-09-18T08:48:29.142Z,20.53
2018-09-18T08:50:59.194Z,15.30
2018-09-18T08:53:28.884Z,17.00
2018-09-18T08:55:58.267Z,13.63
2018-09-18T08:58:27.594Z,13.60
2018-09-18T09:00:56.949Z,15.10
2018-09-18T09:03:26.261Z,13.43
2018-09-18T09:05:55.619Z,12.30
2018-09-18T09:08:25.057Z,20.10
2018-09-18T09:10:54.434Z,12.10
2018-09-18T09:13:23.643Z,15.30
2018-09-18T09:15:52.991Z,11.55
2018-09-18T09:18:22.511Z,11.18
2018-09-18T09:20:51.791Z,16.30
2018-09-18T09:23:21.300Z,16.23
2018-09-18T09:25:50.668Z,17.27
2018-09-18T09:28:19.973Z,13.17
2018-09-18T09:30:49.280Z,12.50
2018-09-18T09:33:18.598Z,11.85
2018-09-18T09:35:47.988Z,11.00
2018-09-18T09:38:17.424Z,10.45
2018-09-18T09:40:46.786Z,12.18
2018-09-18T09:43:16.384Z,13.03
2018-09-18T09:45:45.717Z,12.43
2018-09-18T09:48:15.130Z,11.65
2018-09-18T09:50:44.456Z,12.40
2018-09-18T09:53:13.736Z,11.40
2018-09-18T09:55:43.081Z,11.43
2018-09-18T09:58:12.568Z,13.15
2018-09-18T10:01:47.673Z,11.70
2018-09-18T10:04:17.231Z,8.98
2018-09-18T10:06:46.564Z,11.70
2018-09-18T10:09:15.834Z,9.90
2018-09-18T10:11:45.171Z,9.60
2018-09-18T10:14:14.512Z,12.53
2018-09-18T10:16:43.887Z,12.50
2018-09-18T10:19:13.248Z,10.00
2018-09-18T10:21:42.561Z,11.10
2018-09-18T10:24:11.853Z,9.03
2018-09-18T10:26:41.542Z,9.90
2018-09-18T10:29:10.878Z,9.98
2018-09-18T10:31:40.200Z,9.68
2018-09-18T10:34:09.580Z,12.30
2018-09-18T10:36:40.518Z,14.43
2018-09-18T10:39:11.336Z,8.73
2018-09-18T10:41:41.037Z,10.25
2018-09-18T10:44:10.277Z,9.58
2018-09-18T10:46:39.747Z,14.23
2018-09-18T10:49:09.080Z,9.10
2018-09-18T10:51:38.372Z,11.80
2018-09-18T10:54:07.755Z,8.35
2018-09-18T10:56:37.075Z,8.05
2018-09-18T10:59:06.362Z,9.38
2018-09-18T11:01:35.700Z,16.35
2018-09-18T11:04:05.014Z,10.23
2018-09-18T11:06:34.413Z,7.92
2018-09-18T11:09:04.201Z,7.67
2018-09-18T11:11:33.682Z,7.70
2018-09-18T11:14:02.866Z,9.80
2018-09-18T11:16:32.476Z,9.75
2018-09-18T11:19:02.102Z,8.30
2018-09-18T11:21:31.390Z,7.45
2018-09-18T11:24:00.657Z,9.63
2018-09-18T11:26:30.127Z,7.62
2018-09-18T11:28:59.460Z,8.95
2018-09-18T11:31:28.772Z,13.55
2018-09-18T11:33:58.093Z,6.70
2018-09-18T11:36:28.223Z,7.17
2018-09-18T11:38:58.356Z,6.78
2018-09-18T11:41:27.972Z,9.90
2018-09-18T11:43:57.247Z,8.90
2018-09-18T11:46:26.656Z,6.58
2018-09-18T11:48:55.956Z,7.78
2018-09-18T11:51:25.272Z,6.00
2018-09-18T11:53:54.661Z,9.15
2018-09-18T11:56:24.133Z,8.18
2018-09-18T11:58:53.385Z,6.25
2018-09-18T12:01:22.685Z,7.45
2018-09-18T12:03:51.980Z,10.98
2018-09-18T12:06:21.304Z,6.45
2018-09-18T12:08:50.647Z,6.58
2018-09-18T12:11:20.037Z,6.05
2018-09-18T12:13:49.360Z,7.97
2018-09-18T12:16:18.738Z,9.65
2018-09-18T12:18:48.091Z,7.37
2018-09-18T12:21:17.367Z,5.97
2018-09-18T12:23:46.731Z,5.70
2018-09-18T12:26:16.151Z,7.10
2018-09-18T12:28:45.507Z,9.28
2018-09-18T12:31:14.841Z,8.25
2018-09-18T12:33:44.123Z,7.92
2018-09-18T12:36:13.781Z,6.45
2018-09-18T12:38:43.117Z,7.65
2018-09-18T12:41:12.519Z,6.70
2018-09-18T12:43:41.989Z,9.73
2018-09-18T12:46:11.289Z,7.60
2018-09-18T12:48:40.734Z,5.58
2018-09-18T12:51:09.957Z,9.25
2018-09-18T12:53:39.339Z,6.80
2018-09-18T12:56:08.702Z,4.70
2018-09-18T12:58:37.920Z,5.92
2018-09-18T13:01:07.215Z,6.20
2018-09-18T13:03:36.667Z,4.97
2018-09-18T13:06:06.058Z,5.53
2018-09-18T13:08:35.481Z,4.20
2018-09-18T13:11:04.824Z,4.30
2018-09-18T13:13:34.187Z,6.42
2018-09-18T13:16:03.765Z,5.62
2018-09-18T13:18:39.680Z,6.22
2018-09-18T13:21:09.067Z,4.00
2018-09-18T13:23:38.380Z,7.10
2018-09-18T13:26:07.869Z,5.53
2018-09-18T13:28:37.191Z,6.58
2018-09-18T13:31:06.504Z,4.33
2018-09-18T13:33:35.808Z,4.20
2018-09-18T13:36:05.220Z,7.03
2018-09-18T13:38:34.503Z,4.00
2018-09-18T13:41:03.942Z,5.22
2018-09-18T13:43:33.116Z,5.70
2018-09-18T13:46:02.459Z,4.37
2018-09-18T13:48:31.770Z,4.80
2018-09-18T13:51:01.006Z,5.05
2018-09-18T13:53:30.376Z,3.80
2018-09-18T13:55:59.678Z,8.25
2018-09-18T13:58:29.382Z,4.03
2018-09-18T14:00:58.940Z,5.12
2018-09-18T14:03:28.535Z,7.25
2018-09-18T14:05:57.805Z,4.67
2018-09-18T14:08:27.158Z,4.92
2018-09-18T14:10:56.497Z,4.20
2018-09-18T14:13:25.805Z,4.62
2018-09-18T14:15:55.148Z,6.83
2018-09-18T14:18:24.564Z,6.15
2018-09-18T14:20:53.816Z,5.72
2018-09-18T14:23:23.180Z,8.03
2018-09-18T14:25:52.511Z,3.87
2018-09-18T14:28:21.748Z,5.47
2018-09-18T14:30:51.044Z,8.63
2018-09-18T14:33:20.451Z,6.28
2018-09-18T14:35:49.816Z,5.67
2018-09-18T14:38:19.255Z,7.10
2018-09-18T14:40:48.865Z,5.20
2018-09-18T14:43:18.159Z,4.78
2018-09-18T14:45:47.487Z,5.90
2018-09-18T14:48:16.879Z,6.47
2018-09-18T14:50:46.345Z,3.90
2018-09-18T14:53:15.687Z,8.45
2018-09-18T14:55:45.013Z,7.50
2018-09-18T14:58:14.371Z,3.87
2018-09-18T15:00:43.636Z,7.47
2018-09-18T15:03:12.938Z,9.48
2018-09-18T15:05:42.235Z,15.93
2018-09-18T15:08:12.559Z,7.70
2018-09-18T15:10:41.859Z,3.95
2018-09-18T15:13:11.221Z,6.90
2018-09-18T15:15:40.545Z,8.08
2018-09-18T15:18:09.909Z,7.03
2018-09-18T15:20:39.314Z,8.63
2018-09-18T15:23:08.701Z,4.62
2018-09-18T15:25:37.999Z,8.48
2018-09-18T15:28:07.348Z,6.47
2018-09-18T15:30:36.884Z,6.40
2018-09-18T15:33:06.187Z,6.90
2018-09-18T15:35:35.485Z,8.15
2018-09-18T15:38:04.823Z,10.40
2018-09-18T15:40:34.143Z,10.72
2018-09-18T15:43:03.499Z,7.70
2018-09-18T15:45:32.849Z,10.40
2018-09-18T15:48:02.124Z,6.33
2018-09-18T15:50:31.400Z,10.85
2018-09-18T15:53:00.821Z,6.33
2018-09-18T15:55:30.403Z,10.15
2018-09-18T15:57:59.744Z,7.47
2018-09-18T16:00:29.032Z,5.28
2018-09-18T16:02:58.881Z,6.37
2018-09-18T16:05:28.203Z,7.80
2018-09-18T16:07:58.549Z,7.25
2018-09-18T16:10:27.832Z,6.40
2018-09-18T16:12:57.113Z,10.98
2018-09-18T16:15:26.487Z,6.85
2018-09-18T16:17:55.875Z,6.65
2018-09-18T16:20:25.172Z,5.95
2018-09-18T16:22:54.540Z,10.32
2018-09-18T16:25:23.877Z,9.78
2018-09-18T16:27:53.372Z,9.80
2018-09-18T16:30:22.667Z,11.60
2018-09-18T16:32:51.921Z,6.85
2018-09-18T16:35:21.292Z,6.72
2018-09-18T16:37:50.695Z,6.30
2018-09-18T16:40:20.142Z,12.18
2018-09-18T16:42:49.376Z,11.03
2018-09-18T16:45:18.693Z,8.13
2018-09-18T16:47:48.086Z,7.25
2018-09-18T16:50:17.377Z,6.53
2018-09-18T16:52:46.652Z,6.00
2018-09-18T16:55:16.041Z,7.87
2018-09-18T16:57:45.480Z,6.80
2018-09-18T17:00:15.415Z,7.25
2018-09-18T17:02:44.725Z,9.53
2018-09-18T17:05:13.989Z,7.67
2018-09-18T17:07:43.342Z,7.47
2018-09-18T17:10:12.739Z,12.37
2018-09-18T17:12:42.012Z,9.33
2018-09-18T17:15:17.830Z,7.43
2018-09-18T17:17:47.117Z,7.00
2018-09-18T17:20:16.375Z,5.83
2018-09-18T17:22:45.659Z,8.37
2018-09-18T17:25:15.075Z,11.37
2018-09-18T17:27:44.616Z,6.23
2018-09-18T17:30:13.973Z,7.23
2018-09-18T17:32:43.227Z,4.87
2018-09-18T17:35:12.563Z,6.57
2018-09-18T17:37:41.856Z,6.57
2018-09-18T17:40:11.181Z,6.10
2018-09-18T17:42:40.495Z,6.60
2018-09-18T17:45:09.853Z,7.13
2018-09-18T17:47:39.272Z,7.43
2018-09-18T17:50:08.602Z,7.40
2018-09-18T17:52:37.877Z,9.40
2018-09-18T17:55:07.469Z,5.33
2018-09-18T17:57:36.824Z,7.23
2018-09-18T18:00:07.177Z,6.97
2018-09-18T18:02:36.545Z,9.93
2018-09-18T18:05:05.849Z,11.40
2018-09-18T18:07:35.318Z,6.10
2018-09-18T18:10:04.781Z,10.37
2018-09-18T18:12:34.051Z,8.93
2018-09-18T18:15:03.341Z,5.93
2018-09-18T18:17:32.764Z,8.10
2018-09-18T18:20:02.097Z,5.60
2018-09-18T18:22:31.305Z,9.47
2018-09-18T18:25:00.600Z,8.17
2018-09-18T18:27:30.010Z,5.67
2018-09-18T18:29:59.345Z,8.13
2018-09-18T18:32:28.637Z,8.53
2018-09-18T18:34:58.159Z,7.17
2018-09-18T18:37:27.559Z,6.07
2018-09-18T18:39:56.866Z,6.17
2018-09-18T18:42:26.148Z,7.13
2018-09-18T18:44:55.512Z,6.00
2018-09-18T18:47:24.859Z,7.07
2018-09-18T18:49:54.139Z,5.93
2018-09-18T18:52:23.472Z,8.50
2018-09-18T18:54:52.828Z,6.30
2018-09-18T18:57:22.196Z,9.00
2018-09-18T18:59:51.526Z,12.70
2018-09-18T19:02:20.848Z,7.60
2018-09-18T19:04:50.179Z,8.13
2018-09-18T19:07:19.586Z,8.00
2018-09-18T19:09:48.873Z,7.10
2018-09-18T19:12:18.229Z,9.30
2018-09-18T19:14:47.504Z,8.93
2018-09-18T19:17:16.889Z,8.50
2018-09-18T19:19:46.201Z,7.23
2018-09-18T19:22:15.453Z,6.53
2018-09-18T19:24:44.731Z,5.03
2018-09-18T19:27:14.099Z,7.10
2018-09-18T19:29:43.550Z,8.27
2018-09-18T19:32:12.871Z,9.53
2018-09-18T19:34:42.174Z,7.00
2018-09-18T19:37:12.526Z,6.47
2018-09-18T19:39:41.968Z,6.70
2018-09-18T19:42:11.237Z,9.07
2018-09-18T19:44:40.465Z,9.30
2018-09-18T19:47:09.748Z,11.67
2018-09-18T19:49:40.606Z,13.13
2018-09-18T19:52:10.917Z,5.60
2018-09-18T19:54:40.845Z,9.57
2018-09-18T19:57:10.215Z,8.07
2018-09-18T19:59:39.447Z,11.77
2018-09-18T20:02:08.667Z,10.23
2018-09-18T20:04:37.908Z,7.50
2018-09-18T20:07:07.238Z,7.67
2018-09-18T20:09:36.440Z,12.73
2018-09-18T20:12:05.767Z,8.17
2018-09-18T20:14:35.012Z,7.57
2018-09-18T20:17:04.341Z,7.07
2018-09-18T20:19:33.573Z,7.20
2018-09-18T20:22:02.832Z,7.97
2018-09-18T20:24:32.065Z,8.07
2018-09-18T20:27:01.294Z,7.87
2018-09-18T20:29:30.538Z,9.57
2018-09-18T20:31:59.879Z,6.07
2018-09-18T20:34:29.111Z,8.73
2018-09-18T20:36:58.405Z,6.97
2018-09-18T20:39:27.729Z,10.20
2018-09-18T20:41:56.931Z,9.17
2018-09-18T20:44:26.225Z,8.30
2018-09-18T20:46:55.487Z,7.47
2018-09-18T20:49:24.724Z,8.67
2018-09-18T20:51:54.247Z,10.60
2018-09-18T20:54:23.437Z,9.73
2018-09-18T20:56:52.703Z,9.70
2018-09-18T20:59:21.932Z,6.47
2018-09-18T21:01:51.194Z,5.60
2018-09-18T21:04:20.425Z,8.03
2018-09-18T21:06:49.702Z,6.33
2018-09-18T21:09:18.931Z,5.47
2018-09-18T21:11:48.172Z,8.83
2018-09-18T21:14:17.395Z,8.63
2018-09-18T21:16:46.728Z,8.50
2018-09-18T21:19:15.951Z,7.70
2018-09-18T21:21:45.191Z,5.73
2018-09-18T21:24:14.451Z,11.63
2018-09-18T21:26:43.723Z,9.13
2018-09-18T21:29:12.953Z,6.53
2018-09-18T21:31:42.192Z,6.73
2018-09-18T21:34:11.447Z,8.07
2018-09-18T21:36:40.722Z,7.13
2018-09-18T21:39:10.743Z,5.27
2018-09-18T21:41:39.974Z,9.47
2018-09-18T21:44:09.291Z,7.27
2018-09-18T21:46:38.609Z,11.73
2018-09-18T21:49:07.838Z,7.53
2018-09-18T21:51:37.038Z,7.97
2018-09-18T21:54:06.269Z,9.50
2018-09-18T21:56:35.707Z,7.97
2018-09-18T21:59:04.934Z,7.53
2018-09-18T22:01:34.169Z,10.40
2018-09-18T22:04:03.407Z,11.83
2018-09-18T22:06:32.686Z,8.80
2018-09-18T22:09:01.907Z,10.57
2018-09-18T22:11:31.123Z,6.87
2018-09-18T22:14:00.347Z,8.53
2018-09-18T22:16:29.627Z,10.17
2018-09-18T22:18:58.926Z,7.43
2018-09-18T22:21:28.156Z,5.63
2018-09-18T22:23:57.381Z,8.57
2018-09-18T22:26:26.723Z,7.90
2018-09-18T22:28:56.303Z,9.33
2018-09-18T22:31:25.537Z,5.73
2018-09-18T22:33:54.736Z,10.57
2018-09-18T22:36:24.023Z,6.53
2018-09-18T22:38:53.227Z,6.43
2018-09-18T22:41:22.434Z,9.13
2018-09-18T22:43:51.624Z,7.33
2018-09-18T22:46:20.920Z,8.23
2018-09-18T22:48:50.155Z,7.47
2018-09-18T22:51:19.449Z,10.73
2018-09-18T22:53:48.691Z,9.03
2018-09-18T22:56:18.020Z,11.30
2018-09-18T22:58:47.225Z,10.53
2018-09-18T23:01:16.495Z,11.20
2018-09-18T23:03:45.824Z,10.30
2018-09-18T23:06:15.326Z,9.87
2018-09-18T23:08:44.728Z,6.97
2018-09-18T23:11:13.960Z,8.13
2018-09-18T23:13:43.172Z,8.20
2018-09-18T23:16:12.502Z,8.50
2018-09-18T23:18:41.834Z,8.27
2018-09-18T23:21:11.132Z,7.60
2018-09-18T23:23:40.427Z,6.90
2018-09-18T23:26:09.702Z,7.80
2018-09-18T23:28:38.958Z,7.17
2018-09-18T23:31:08.170Z,9.13
2018-09-18T23:33:37.427Z,7.93
2018-09-18T23:36:06.697Z,8.40
2018-09-18T23:38:35.924Z,7.63
2018-09-18T23:41:05.123Z,10.43
2018-09-18T23:43:34.317Z,7.70
2018-09-18T23:46:03.591Z,8.03
2018-09-18T23:48:32.810Z,9.70
2018-09-18T23:51:02.024Z,9.87
2018-09-18T23:53:31.240Z,9.80
2018-09-18T23:56:00.486Z,9.57
2018-09-18T23:58:29.705Z,9.13
